sensor_id;sensor_type;location;lat;lon;timestamp;pressure;altitude;pressure_sealevel;temperature;humidity
40171;BME280;37650;52.790;18.268;2022-10-28T00:00:45;101502.02;;;10.06;100.00
40171;BME280;37650;52.790;18.268;2022-10-28T00:04:08;101496.33;;;9.89;100.00
40171;BME280;37650;52.790;18.268;2022-10-28T00:07:29;101499.01;;;9.64;100.00
40171;BME280;37650;52.790;18.268;2022-10-28T00:10:50;101494.88;;;9.49;100.00
40171;BME280;37650;52.790;18.268;2022-10-28T00:14:14;101493.96;;;9.39;100.00
40171;BME280;37650;52.790;18.268;2022-10-28T00:17:35;101493.39;;;9.31;100.00
40171;BME280;37650;52.790;18.268;2022-10-28T00:21:01;101497.61;;;9.29;100.00
40171;BME280;37650;52.790;18.268;2022-10-28T00:24:23;101495.61;;;9.34;100.00
40171;BME280;37650;52.790;18.268;2022-10-28T00:27:44;101488.46;;;9.32;100.00
40171;BME280;37650;52.790;18.268;2022-10-28T00:31:07;101487.29;;;9.29;100.00
40171;BME280;37650;52.790;18.268;2022-10-28T00:34:29;101481.02;;;9.26;100.00
40171;BME280;37650;52.790;18.268;2022-10-28T00:37:52;101480.30;;;9.28;100.00
40171;BME280;37650;52.790;18.268;2022-10-28T00:41:17;101479.10;;;9.25;100.00
40171;BME280;37650;52.790;18.268;2022-10-28T00:44:57;101474.10;;;9.19;100.00
40171;BME280;37650;52.790;18.268;2022-10-28T00:48:19;101469.77;;;9.16;100.00
40171;BME280;37650;52.790;18.268;2022-10-28T00:51:43;101464.75;;;9.13;100.00
40171;BME280;37650;52.790;18.268;2022-10-28T00:55:06;101455.48;;;9.12;100.00
40171;BME280;37650;52.790;18.268;2022-10-28T00:58:28;101454.76;;;9.13;100.00
40171;BME280;37650;52.790;18.268;2022-10-28T01:01:49;101449.21;;;9.09;100.00
40171;BME280;37650;52.790;18.268;2022-10-28T01:05:13;101451.49;;;9.09;100.00
40171;BME280;37650;52.790;18.268;2022-10-28T01:08:35;101451.88;;;9.07;100.00
40171;BME280;37650;52.790;18.268;2022-10-28T01:15:50;101442.67;;;9.02;100.00
40171;BME280;37650;52.790;18.268;2022-10-28T01:23:03;101439.00;;;9.02;100.00
40171;BME280;37650;52.790;18.268;2022-10-28T01:27:37;101436.56;;;9.02;100.00
40171;BME280;37650;52.790;18.268;2022-10-28T01:30:26;101435.98;;;9.05;100.00
40171;BME280;37650;52.790;18.268;2022-10-28T01:34:08;101428.45;;;9.06;100.00
40171;BME280;37650;52.790;18.268;2022-10-28T01:38:14;101428.90;;;9.10;100.00
40171;BME280;37650;52.790;18.268;2022-10-28T01:42:09;101422.61;;;9.10;100.00
40171;BME280;37650;52.790;18.268;2022-10-28T01:45:35;101421.86;;;9.13;100.00
40171;BME280;37650;52.790;18.268;2022-10-28T01:49:03;101420.70;;;9.20;100.00
40171;BME280;37650;52.790;18.268;2022-10-28T01:52:27;101416.14;;;9.21;100.00
40171;BME280;37650;52.790;18.268;2022-10-28T01:55:52;101415.27;;;9.19;100.00
40171;BME280;37650;52.790;18.268;2022-10-28T01:59:19;101415.79;;;9.21;100.00
40171;BME280;37650;52.790;18.268;2022-10-28T02:02:42;101411.17;;;9.25;100.00
40171;BME280;37650;52.790;18.268;2022-10-28T02:06:06;101402.39;;;9.27;100.00
40171;BME280;37650;52.790;18.268;2022-10-28T02:10:10;101395.72;;;9.29;100.00
40171;BME280;37650;52.790;18.268;2022-10-28T02:21:09;101392.77;;;9.14;100.00
40171;BME280;37650;52.790;18.268;2022-10-28T02:24:46;101389.11;;;9.02;100.00
40171;BME280;37650;52.790;18.268;2022-10-28T02:28:20;101388.23;;;8.91;100.00
40171;BME280;37650;52.790;18.268;2022-10-28T02:31:44;101377.54;;;8.79;100.00
40171;BME280;37650;52.790;18.268;2022-10-28T02:35:13;101373.59;;;8.62;100.00
40171;BME280;37650;52.790;18.268;2022-10-28T02:38:45;101367.96;;;8.51;100.00
40171;BME280;37650;52.790;18.268;2022-10-28T02:42:13;101370.83;;;8.45;100.00
40171;BME280;37650;52.790;18.268;2022-10-28T02:45:40;101371.95;;;8.39;100.00
40171;BME280;37650;52.790;18.268;2022-10-28T02:49:04;101370.07;;;8.36;100.00
40171;BME280;37650;52.790;18.268;2022-10-28T02:52:29;101367.94;;;8.39;100.00
40171;BME280;37650;52.790;18.268;2022-10-28T02:55:53;101365.98;;;8.41;100.00
40171;BME280;37650;52.790;18.268;2022-10-28T02:59:15;101361.95;;;8.42;100.00
40171;BME280;37650;52.790;18.268;2022-10-28T03:02:36;101361.79;;;8.41;100.00
40171;BME280;37650;52.790;18.268;2022-10-28T03:05:57;101362.48;;;8.42;100.00
40171;BME280;37650;52.790;18.268;2022-10-28T03:09:19;101361.80;;;8.40;100.00
40171;BME280;37650;52.790;18.268;2022-10-28T03:12:40;101352.39;;;8.37;100.00
40171;BME280;37650;52.790;18.268;2022-10-28T03:16:01;101346.06;;;8.39;100.00
40171;BME280;37650;52.790;18.268;2022-10-28T03:19:22;101342.84;;;8.45;100.00
40171;BME280;37650;52.790;18.268;2022-10-28T03:22:44;101346.44;;;8.52;100.00
40171;BME280;37650;52.790;18.268;2022-10-28T03:26:06;101341.67;;;8.55;100.00
40171;BME280;37650;52.790;18.268;2022-10-28T03:29:27;101340.42;;;8.57;100.00
40171;BME280;37650;52.790;18.268;2022-10-28T03:32:48;101341.40;;;8.61;100.00
40171;BME280;37650;52.790;18.268;2022-10-28T03:36:09;101338.77;;;8.64;100.00
40171;BME280;37650;52.790;18.268;2022-10-28T03:39:30;101339.22;;;8.67;100.00
40171;BME280;37650;52.790;18.268;2022-10-28T03:42:51;101334.14;;;8.69;100.00
40171;BME280;37650;52.790;18.268;2022-10-28T03:46:12;101328.20;;;8.68;100.00
40171;BME280;37650;52.790;18.268;2022-10-28T03:49:32;101330.64;;;8.69;100.00
40171;BME280;37650;52.790;18.268;2022-10-28T03:52:54;101327.14;;;8.68;100.00
40171;BME280;37650;52.790;18.268;2022-10-28T03:56:15;101325.92;;;8.67;100.00
40171;BME280;37650;52.790;18.268;2022-10-28T03:59:36;101324.86;;;8.69;100.00
40171;BME280;37650;52.790;18.268;2022-10-28T04:02:58;101323.41;;;8.72;100.00
40171;BME280;37650;52.790;18.268;2022-10-28T04:06:19;101325.14;;;8.73;100.00
40171;BME280;37650;52.790;18.268;2022-10-28T04:09:40;101322.45;;;8.78;100.00
40171;BME280;37650;52.790;18.268;2022-10-28T04:13:03;101318.84;;;8.85;100.00
40171;BME280;37650;52.790;18.268;2022-10-28T04:16:25;101316.08;;;8.95;100.00
40171;BME280;37650;52.790;18.268;2022-10-28T04:19:46;101310.32;;;9.04;100.00
40171;BME280;37650;52.790;18.268;2022-10-28T04:23:13;101308.27;;;9.12;100.00
40171;BME280;37650;52.790;18.268;2022-10-28T04:26:35;101304.67;;;9.18;100.00
40171;BME280;37650;52.790;18.268;2022-10-28T04:29:56;101296.88;;;9.24;100.00
40171;BME280;37650;52.790;18.268;2022-10-28T04:33:17;101286.26;;;9.30;100.00
40171;BME280;37650;52.790;18.268;2022-10-28T04:36:39;101287.42;;;9.35;100.00
40171;BME280;37650;52.790;18.268;2022-10-28T04:40:00;101285.24;;;9.38;100.00
40171;BME280;37650;52.790;18.268;2022-10-28T04:43:20;101279.63;;;9.39;100.00
40171;BME280;37650;52.790;18.268;2022-10-28T04:46:41;101278.02;;;9.40;100.00
40171;BME280;37650;52.790;18.268;2022-10-28T04:50:03;101273.27;;;9.41;100.00
40171;BME280;37650;52.790;18.268;2022-10-28T04:53:24;101269.23;;;9.41;100.00
40171;BME280;37650;52.790;18.268;2022-10-28T04:56:45;101268.52;;;9.43;100.00
40171;BME280;37650;52.790;18.268;2022-10-28T05:00:06;101276.73;;;9.45;100.00
40171;BME280;37650;52.790;18.268;2022-10-28T05:03:29;101280.23;;;9.44;100.00
40171;BME280;37650;52.790;18.268;2022-10-28T05:06:50;101281.29;;;9.44;100.00
40171;BME280;37650;52.790;18.268;2022-10-28T05:10:11;101276.20;;;9.45;100.00
40171;BME280;37650;52.790;18.268;2022-10-28T05:13:34;101273.20;;;9.45;100.00
40171;BME280;37650;52.790;18.268;2022-10-28T05:16:55;101276.50;;;9.47;100.00
40171;BME280;37650;52.790;18.268;2022-10-28T05:20:18;101272.98;;;9.47;100.00
40171;BME280;37650;52.790;18.268;2022-10-28T05:23:39;101264.23;;;9.47;100.00
40171;BME280;37650;52.790;18.268;2022-10-28T05:27:01;101258.09;;;9.48;100.00
40171;BME280;37650;52.790;18.268;2022-10-28T05:30:22;101254.38;;;9.51;100.00
40171;BME280;37650;52.790;18.268;2022-10-28T05:33:44;101255.36;;;9.54;100.00
40171;BME280;37650;52.790;18.268;2022-10-28T05:37:05;101249.52;;;9.56;100.00
40171;BME280;37650;52.790;18.268;2022-10-28T05:40:26;101245.85;;;9.56;100.00
40171;BME280;37650;52.790;18.268;2022-10-28T05:43:47;101244.23;;;9.57;100.00
40171;BME280;37650;52.790;18.268;2022-10-28T05:47:08;101245.42;;;9.60;100.00
40171;BME280;37650;52.790;18.268;2022-10-28T05:50:29;101242.38;;;9.64;100.00
40171;BME280;37650;52.790;18.268;2022-10-28T05:53:49;101244.38;;;9.68;100.00
40171;BME280;37650;52.790;18.268;2022-10-28T05:57:11;101242.20;;;9.72;100.00
40171;BME280;37650;52.790;18.268;2022-10-28T06:00:32;101244.73;;;9.77;100.00
40171;BME280;37650;52.790;18.268;2022-10-28T06:03:53;101243.44;;;9.81;100.00
40171;BME280;37650;52.790;18.268;2022-10-28T06:07:15;101248.13;;;9.83;100.00
40171;BME280;37650;52.790;18.268;2022-10-28T06:10:36;101257.89;;;9.86;100.00
40171;BME280;37650;52.790;18.268;2022-10-28T06:13:56;101255.58;;;9.88;100.00
40171;BME280;37650;52.790;18.268;2022-10-28T06:17:17;101254.64;;;9.90;100.00
40171;BME280;37650;52.790;18.268;2022-10-28T06:20:39;101259.84;;;9.93;100.00
40171;BME280;37650;52.790;18.268;2022-10-28T06:24:00;101255.06;;;9.95;100.00
40171;BME280;37650;52.790;18.268;2022-10-28T06:27:21;101254.12;;;9.98;100.00
40171;BME280;37650;52.790;18.268;2022-10-28T06:30:42;101259.00;;;10.00;100.00
40171;BME280;37650;52.790;18.268;2022-10-28T06:34:03;101256.56;;;9.99;100.00
40171;BME280;37650;52.790;18.268;2022-10-28T06:37:25;101253.73;;;10.00;100.00
40171;BME280;37650;52.790;18.268;2022-10-28T06:40:46;101260.34;;;10.03;100.00
40171;BME280;37650;52.790;18.268;2022-10-28T06:44:08;101263.23;;;10.07;100.00
40171;BME280;37650;52.790;18.268;2022-10-28T06:47:29;101267.36;;;10.10;100.00
40171;BME280;37650;52.790;18.268;2022-10-28T06:50:54;101269.79;;;10.12;100.00
40171;BME280;37650;52.790;18.268;2022-10-28T06:54:16;101273.59;;;10.15;100.00
40171;BME280;37650;52.790;18.268;2022-10-28T06:57:38;101273.96;;;10.14;100.00
40171;BME280;37650;52.790;18.268;2022-10-28T07:01:02;101281.13;;;10.15;100.00
40171;BME280;37650;52.790;18.268;2022-10-28T07:04:22;101280.40;;;10.17;100.00
40171;BME280;37650;52.790;18.268;2022-10-28T07:07:45;101276.63;;;10.21;100.00
40171;BME280;37650;52.790;18.268;2022-10-28T07:15:17;101279.33;;;10.35;100.00
40171;BME280;37650;52.790;18.268;2022-10-28T07:18:39;101279.08;;;10.45;100.00
40171;BME280;37650;52.790;18.268;2022-10-28T07:21:59;101277.20;;;10.59;100.00
40171;BME280;37650;52.790;18.268;2022-10-28T07:25:20;101276.16;;;10.74;100.00
40171;BME280;37650;52.790;18.268;2022-10-28T07:28:41;101274.48;;;10.86;100.00
40171;BME280;37650;52.790;18.268;2022-10-28T07:32:03;101271.59;;;10.96;100.00
40171;BME280;37650;52.790;18.268;2022-10-28T07:35:24;101265.92;;;11.05;100.00
40171;BME280;37650;52.790;18.268;2022-10-28T07:38:48;101265.94;;;11.18;100.00
40171;BME280;37650;52.790;18.268;2022-10-28T07:42:11;101265.83;;;11.36;100.00
40171;BME280;37650;52.790;18.268;2022-10-28T07:45:33;101257.67;;;11.52;100.00
40171;BME280;37650;52.790;18.268;2022-10-28T07:48:54;101252.45;;;11.63;100.00
40171;BME280;37650;52.790;18.268;2022-10-28T07:52:16;101247.24;;;11.74;100.00
40171;BME280;37650;52.790;18.268;2022-10-28T07:55:38;101246.88;;;11.87;100.00
40171;BME280;37650;52.790;18.268;2022-10-28T07:58:59;101252.54;;;12.04;100.00
40171;BME280;37650;52.790;18.268;2022-10-28T08:02:22;101255.39;;;12.26;100.00
40171;BME280;37650;52.790;18.268;2022-10-28T08:05:44;101255.49;;;12.51;100.00
40171;BME280;37650;52.790;18.268;2022-10-28T08:09:05;101251.12;;;12.73;100.00
40171;BME280;37650;52.790;18.268;2022-10-28T08:12:26;101245.55;;;12.92;100.00
40171;BME280;37650;52.790;18.268;2022-10-28T08:15:51;101244.02;;;13.06;100.00
40171;BME280;37650;52.790;18.268;2022-10-28T08:19:12;101241.23;;;13.17;100.00
40171;BME280;37650;52.790;18.268;2022-10-28T08:22:33;101239.27;;;13.28;100.00
40171;BME280;37650;52.790;18.268;2022-10-28T08:25:55;101233.92;;;13.34;100.00
40171;BME280;37650;52.790;18.268;2022-10-28T08:29:16;101232.48;;;13.55;100.00
40171;BME280;37650;52.790;18.268;2022-10-28T08:32:37;101232.00;;;13.78;100.00
40171;BME280;37650;52.790;18.268;2022-10-28T08:35:58;101233.73;;;14.07;100.00
40171;BME280;37650;52.790;18.268;2022-10-28T08:39:20;101237.42;;;14.45;100.00
40171;BME280;37650;52.790;18.268;2022-10-28T08:42:46;101245.56;;;14.66;100.00
40171;BME280;37650;52.790;18.268;2022-10-28T08:46:48;101243.43;;;15.01;100.00
40171;BME280;37650;52.790;18.268;2022-10-28T08:50:15;101240.67;;;15.36;100.00
40171;BME280;37650;52.790;18.268;2022-10-28T08:53:46;101239.17;;;15.55;100.00
40171;BME280;37650;52.790;18.268;2022-10-28T08:57:15;101242.73;;;15.67;100.00
40171;BME280;37650;52.790;18.268;2022-10-28T09:00:37;101247.58;;;15.96;100.00
40171;BME280;37650;52.790;18.268;2022-10-28T09:04:01;101250.92;;;16.20;100.00
40171;BME280;37650;52.790;18.268;2022-10-28T09:07:25;101239.04;;;16.35;100.00
40171;BME280;37650;52.790;18.268;2022-10-28T09:18:19;101225.27;;;19.16;100.00
40171;BME280;37650;52.790;18.268;2022-10-28T09:21:46;101224.44;;;19.97;100.00
40171;BME280;37650;52.790;18.268;2022-10-28T09:25:39;101220.02;;;20.25;100.00
40171;BME280;37650;52.790;18.268;2022-10-28T09:33:27;101221.55;;;19.95;97.49
40171;BME280;37650;52.790;18.268;2022-10-28T09:36:54;101210.20;;;20.36;98.38
40171;BME280;37650;52.790;18.268;2022-10-28T09:40:22;101208.13;;;20.63;97.64
40171;BME280;37650;52.790;18.268;2022-10-28T09:47:35;101211.35;;;21.13;90.91
40171;BME280;37650;52.790;18.268;2022-10-28T09:50:57;101209.02;;;21.16;89.17
40171;BME280;37650;52.790;18.268;2022-10-28T09:54:33;101198.99;;;21.62;85.72
40171;BME280;37650;52.790;18.268;2022-10-28T09:57:54;101194.38;;;22.10;84.96
40171;BME280;37650;52.790;18.268;2022-10-28T10:01:16;101194.73;;;22.37;87.00
40171;BME280;37650;52.790;18.268;2022-10-28T10:04:38;101189.45;;;23.42;78.98
40171;BME280;37650;52.790;18.268;2022-10-28T10:08:13;101185.60;;;24.19;80.27
40171;BME280;37650;52.790;18.268;2022-10-28T10:11:39;101169.52;;;25.04;76.44
40171;BME280;37650;52.790;18.268;2022-10-28T10:15:04;101174.52;;;25.59;73.45
40171;BME280;37650;52.790;18.268;2022-10-28T10:18:29;101168.40;;;26.07;69.28
40171;BME280;37650;52.790;18.268;2022-10-28T10:21:53;101170.41;;;25.64;71.56
40171;BME280;37650;52.790;18.268;2022-10-28T10:28:43;101156.80;;;25.40;72.32
40171;BME280;37650;52.790;18.268;2022-10-28T10:35:37;101151.25;;;22.42;75.20
40171;BME280;37650;52.790;18.268;2022-10-28T10:38:58;101147.38;;;21.06;78.01
40171;BME280;37650;52.790;18.268;2022-10-28T10:42:21;101153.05;;;20.05;82.29
40171;BME280;37650;52.790;18.268;2022-10-28T10:46:12;101148.63;;;20.34;83.65
40171;BME280;37650;52.790;18.268;2022-10-28T10:49:34;101144.83;;;20.22;84.89
40171;BME280;37650;52.790;18.268;2022-10-28T10:52:57;101148.52;;;19.73;85.54
40171;BME280;37650;52.790;18.268;2022-10-28T10:56:37;101145.41;;;19.85;84.29
40171;BME280;37650;52.790;18.268;2022-10-28T10:59:58;101144.33;;;19.40;87.11
40171;BME280;37650;52.790;18.268;2022-10-28T11:03:29;101140.66;;;19.42;87.99
40171;BME280;37650;52.790;18.268;2022-10-28T11:06:55;101137.66;;;20.33;87.94
40171;BME280;37650;52.790;18.268;2022-10-28T11:10:35;101138.54;;;20.64;86.50
40171;BME280;37650;52.790;18.268;2022-10-28T11:17:33;101126.89;;;20.07;86.86
40171;BME280;37650;52.790;18.268;2022-10-28T11:21:11;101123.07;;;19.61;87.68
40171;BME280;37650;52.790;18.268;2022-10-28T11:32:28;101138.25;;;18.30;94.01
40171;BME280;37650;52.790;18.268;2022-10-28T11:39:59;101152.15;;;17.79;96.73
40171;BME280;37650;52.790;18.268;2022-10-28T11:43:49;101162.17;;;17.60;98.94
40171;BME280;37650;52.790;18.268;2022-10-28T11:50:47;101206.13;;;17.48;100.00
40171;BME280;37650;52.790;18.268;2022-10-28T12:01:09;101225.38;;;17.39;100.00
40171;BME280;37650;52.790;18.268;2022-10-28T12:05:39;101221.60;;;17.37;100.00
40171;BME280;37650;52.790;18.268;2022-10-28T12:19:37;101197.15;;;18.18;100.00
40171;BME280;37650;52.790;18.268;2022-10-28T12:23:09;101192.29;;;18.88;100.00
40171;BME280;37650;52.790;18.268;2022-10-28T12:26:39;101180.83;;;18.80;99.90
40171;BME280;37650;52.790;18.268;2022-10-28T12:30:32;101167.32;;;19.05;99.91
40171;BME280;37650;52.790;18.268;2022-10-28T12:33:54;101161.42;;;19.60;98.19
40171;BME280;37650;52.790;18.268;2022-10-28T12:37:23;101152.20;;;19.36;98.24
40171;BME280;37650;52.790;18.268;2022-10-28T12:41:01;101149.52;;;19.19;98.53
40171;BME280;37650;52.790;18.268;2022-10-28T12:44:25;101141.82;;;18.88;98.53
40171;BME280;37650;52.790;18.268;2022-10-28T12:51:28;101119.58;;;18.37;100.00
40171;BME280;37650;52.790;18.268;2022-10-28T12:55:00;101122.20;;;18.28;100.00
40171;BME280;37650;52.790;18.268;2022-10-28T12:58:28;101118.94;;;18.20;100.00
40171;BME280;37650;52.790;18.268;2022-10-28T13:01:51;101114.28;;;18.15;100.00
40171;BME280;37650;52.790;18.268;2022-10-28T13:05:28;101104.42;;;18.13;100.00
40171;BME280;37650;52.790;18.268;2022-10-28T13:27:15;101080.86;;;18.12;100.00
40171;BME280;37650;52.790;18.268;2022-10-28T13:30:36;101080.16;;;18.12;100.00
40171;BME280;37650;52.790;18.268;2022-10-28T13:33:58;101077.89;;;18.11;100.00
40171;BME280;37650;52.790;18.268;2022-10-28T13:37:22;101070.80;;;18.05;100.00
40171;BME280;37650;52.790;18.268;2022-10-28T13:47:32;101047.45;;;17.97;100.00
40171;BME280;37650;52.790;18.268;2022-10-28T13:58:04;101022.76;;;17.95;100.00
40171;BME280;37650;52.790;18.268;2022-10-28T14:08:37;101026.98;;;19.70;99.97
40171;BME280;37650;52.790;18.268;2022-10-28T14:12:26;101033.80;;;19.24;100.00
40171;BME280;37650;52.790;18.268;2022-10-28T14:15:50;101037.63;;;18.79;100.00
40171;BME280;37650;52.790;18.268;2022-10-28T14:19:30;101031.09;;;18.49;100.00
40171;BME280;37650;52.790;18.268;2022-10-28T14:22:51;101029.63;;;18.29;100.00
40171;BME280;37650;52.790;18.268;2022-10-28T14:26:14;101026.90;;;18.15;100.00
40171;BME280;37650;52.790;18.268;2022-10-28T14:33:18;101031.02;;;18.08;100.00
40171;BME280;37650;52.790;18.268;2022-10-28T14:36:54;101030.38;;;18.04;100.00
40171;BME280;37650;52.790;18.268;2022-10-28T14:40:31;101033.71;;;17.95;100.00
40171;BME280;37650;52.790;18.268;2022-10-28T14:51:43;101029.34;;;17.63;100.00
40171;BME280;37650;52.790;18.268;2022-10-28T14:55:06;101032.10;;;17.51;100.00
40171;BME280;37650;52.790;18.268;2022-10-28T14:58:30;101032.67;;;17.41;100.00
40171;BME280;37650;52.790;18.268;2022-10-28T15:02:17;101034.82;;;17.31;100.00
40171;BME280;37650;52.790;18.268;2022-10-28T15:05:40;101035.13;;;17.19;100.00
40171;BME280;37650;52.790;18.268;2022-10-28T15:09:49;101029.71;;;17.07;100.00
40171;BME280;37650;52.790;18.268;2022-10-28T15:12:49;101032.02;;;16.98;100.00
40171;BME280;37650;52.790;18.268;2022-10-28T15:16:21;101037.80;;;16.89;100.00
40171;BME280;37650;52.790;18.268;2022-10-28T15:19:45;101043.66;;;16.82;100.00
40171;BME280;37650;52.790;18.268;2022-10-28T15:23:24;101059.42;;;16.75;100.00
40171;BME280;37650;52.790;18.268;2022-10-28T15:26:52;101065.43;;;16.65;100.00
40171;BME280;37650;52.790;18.268;2022-10-28T15:30:19;101060.45;;;16.62;100.00
40171;BME280;37650;52.790;18.268;2022-10-28T15:33:43;101060.59;;;16.63;100.00
40171;BME280;37650;52.790;18.268;2022-10-28T15:37:04;101054.70;;;16.61;100.00
40171;BME280;37650;52.790;18.268;2022-10-28T15:40:30;101050.17;;;16.55;100.00
40171;BME280;37650;52.790;18.268;2022-10-28T15:43:58;101044.17;;;16.48;100.00
40171;BME280;37650;52.790;18.268;2022-10-28T15:47:37;101047.56;;;16.40;100.00
40171;BME280;37650;52.790;18.268;2022-10-28T15:55:36;101040.58;;;16.21;100.00
40171;BME280;37650;52.790;18.268;2022-10-28T15:59:16;101036.92;;;16.16;100.00
40171;BME280;37650;52.790;18.268;2022-10-28T16:02:40;101035.81;;;16.13;100.00
40171;BME280;37650;52.790;18.268;2022-10-28T16:06:02;101035.61;;;16.10;100.00
40171;BME280;37650;52.790;18.268;2022-10-28T16:09:31;101024.83;;;16.07;100.00
40171;BME280;37650;52.790;18.268;2022-10-28T16:12:53;101022.23;;;16.02;100.00
40171;BME280;37650;52.790;18.268;2022-10-28T16:16:23;101019.31;;;15.93;100.00
40171;BME280;37650;52.790;18.268;2022-10-28T16:19:58;101002.44;;;15.87;100.00
40171;BME280;37650;52.790;18.268;2022-10-28T16:23:22;100999.92;;;15.81;100.00
40171;BME280;37650;52.790;18.268;2022-10-28T16:26:45;100993.49;;;15.75;100.00
40171;BME280;37650;52.790;18.268;2022-10-28T16:30:07;100990.95;;;15.69;100.00
40171;BME280;37650;52.790;18.268;2022-10-28T16:33:33;100980.04;;;15.65;100.00
40171;BME280;37650;52.790;18.268;2022-10-28T16:36:54;100968.17;;;15.61;100.00
40171;BME280;37650;52.790;18.268;2022-10-28T16:40:15;100957.25;;;15.60;100.00
40171;BME280;37650;52.790;18.268;2022-10-28T16:43:36;100959.27;;;15.59;100.00
40171;BME280;37650;52.790;18.268;2022-10-28T16:46:57;100970.29;;;15.57;100.00
40171;BME280;37650;52.790;18.268;2022-10-28T16:50:20;100965.75;;;15.52;100.00
40171;BME280;37650;52.790;18.268;2022-10-28T16:53:42;100967.23;;;15.47;100.00
40171;BME280;37650;52.790;18.268;2022-10-28T16:57:07;100972.02;;;15.43;100.00
40171;BME280;37650;52.790;18.268;2022-10-28T17:00:28;100978.64;;;15.41;100.00
40171;BME280;37650;52.790;18.268;2022-10-28T17:03:49;100981.50;;;15.41;100.00
40171;BME280;37650;52.790;18.268;2022-10-28T17:07:10;100977.95;;;15.41;100.00
40171;BME280;37650;52.790;18.268;2022-10-28T17:10:37;100973.46;;;15.42;100.00
40171;BME280;37650;52.790;18.268;2022-10-28T17:13:59;100977.27;;;15.44;100.00
40171;BME280;37650;52.790;18.268;2022-10-28T17:17:20;100978.48;;;15.44;100.00
40171;BME280;37650;52.790;18.268;2022-10-28T17:20:41;100983.95;;;15.44;100.00
40171;BME280;37650;52.790;18.268;2022-10-28T17:24:04;100983.10;;;15.44;100.00
40171;BME280;37650;52.790;18.268;2022-10-28T17:27:26;100985.18;;;15.44;100.00
40171;BME280;37650;52.790;18.268;2022-10-28T17:30:48;100986.48;;;15.43;100.00
40171;BME280;37650;52.790;18.268;2022-10-28T17:34:10;100989.36;;;15.43;100.00
40171;BME280;37650;52.790;18.268;2022-10-28T17:37:31;100978.38;;;15.43;100.00
40171;BME280;37650;52.790;18.268;2022-10-28T17:40:54;100981.27;;;15.41;100.00
40171;BME280;37650;52.790;18.268;2022-10-28T17:44:16;100980.75;;;15.41;100.00
40171;BME280;37650;52.790;18.268;2022-10-28T17:47:38;100980.10;;;15.40;100.00
40171;BME280;37650;52.790;18.268;2022-10-28T17:50:59;100979.84;;;15.35;100.00
40171;BME280;37650;52.790;18.268;2022-10-28T17:54:20;100978.34;;;15.29;100.00
40171;BME280;37650;52.790;18.268;2022-10-28T17:57:41;100976.59;;;15.25;100.00
40171;BME280;37650;52.790;18.268;2022-10-28T18:01:09;100973.87;;;15.23;100.00
40171;BME280;37650;52.790;18.268;2022-10-28T18:04:30;100970.94;;;15.21;100.00
40171;BME280;37650;52.790;18.268;2022-10-28T18:07:55;100965.20;;;15.19;100.00
40171;BME280;37650;52.790;18.268;2022-10-28T18:11:17;100958.09;;;15.16;100.00
40171;BME280;37650;52.790;18.268;2022-10-28T18:14:42;100959.13;;;15.13;100.00
40171;BME280;37650;52.790;18.268;2022-10-28T18:18:04;100951.64;;;15.10;100.00
40171;BME280;37650;52.790;18.268;2022-10-28T18:21:25;100946.37;;;15.06;100.00
40171;BME280;37650;52.790;18.268;2022-10-28T18:24:47;100946.14;;;15.00;100.00
40171;BME280;37650;52.790;18.268;2022-10-28T18:28:08;100937.23;;;14.90;100.00
40171;BME280;37650;52.790;18.268;2022-10-28T18:31:31;100932.55;;;14.84;100.00
40171;BME280;37650;52.790;18.268;2022-10-28T18:34:54;100931.27;;;14.78;100.00
40171;BME280;37650;52.790;18.268;2022-10-28T18:38:16;100929.12;;;14.70;100.00
40171;BME280;37650;52.790;18.268;2022-10-28T18:41:37;100928.91;;;14.63;100.00
40171;BME280;37650;52.790;18.268;2022-10-28T18:45:02;100925.84;;;14.57;100.00
40171;BME280;37650;52.790;18.268;2022-10-28T18:48:26;100926.70;;;14.53;100.00
40171;BME280;37650;52.790;18.268;2022-10-28T18:51:48;100916.06;;;14.51;100.00
40171;BME280;37650;52.790;18.268;2022-10-28T18:55:10;100909.98;;;14.49;100.00
40171;BME280;37650;52.790;18.268;2022-10-28T18:58:31;100916.08;;;14.47;100.00
40171;BME280;37650;52.790;18.268;2022-10-28T19:01:53;100913.05;;;14.43;100.00
40171;BME280;37650;52.790;18.268;2022-10-28T19:05:17;100911.88;;;14.42;100.00
40171;BME280;37650;52.790;18.268;2022-10-28T19:08:40;100909.84;;;14.40;100.00
40171;BME280;37650;52.790;18.268;2022-10-28T19:12:02;100902.30;;;14.39;100.00
40171;BME280;37650;52.790;18.268;2022-10-28T19:15:24;100904.30;;;14.37;100.00
40171;BME280;37650;52.790;18.268;2022-10-28T19:18:47;100900.65;;;14.36;100.00
40171;BME280;37650;52.790;18.268;2022-10-28T19:22:10;100896.73;;;14.36;100.00
40171;BME280;37650;52.790;18.268;2022-10-28T19:25:33;100894.68;;;14.35;100.00
40171;BME280;37650;52.790;18.268;2022-10-28T19:28:54;100894.00;;;14.34;100.00
40171;BME280;37650;52.790;18.268;2022-10-28T19:32:16;100898.67;;;14.32;100.00
40171;BME280;37650;52.790;18.268;2022-10-28T19:35:38;100898.66;;;14.28;100.00
40171;BME280;37650;52.790;18.268;2022-10-28T19:39:01;100898.47;;;14.25;100.00
40171;BME280;37650;52.790;18.268;2022-10-28T19:42:22;100899.84;;;14.22;100.00
40171;BME280;37650;52.790;18.268;2022-10-28T19:45:45;100901.02;;;14.19;100.00
40171;BME280;37650;52.790;18.268;2022-10-28T19:49:08;100897.33;;;14.19;100.00